Terminal Aerodrome Forecast
Issued by NWS

Home | Current Version | Previous Version | Text Only | Print | Product List | Glossary On
Versions: 1 2 3 4 5 6 7 8 9 10 11 12 13 14 15 16 17 18
000
FTUS43 KDVN 231130
TAFBRL
TAF
KBRL 231130Z 2312/2412 13004KT P6SM SCT002 BKN150
      TEMPO 2312/2313 3SM BR BKN002
     FM231500 17007KT P6SM BKN100
     FM240300 15005KT 6SM HZ BKN250=

USA.gov is the U.S. government's official web portal to all federal, state and local government web resources and services.